< < Back
Terminal Aerodrome Forecast


Current Version              Previous Versions:   1  2  3  4  5  6  7  8  9  

Terminal Aerodrome Forecast

304
FTUS44 KHUN 241720
TAFHSV
TAF
KHSV 241720Z 2418/2518 32010KT P6SM BKN035
     FM242300 33010KT P6SM SCT040
     FM250200 VRB03KT P6SM SKC=



Latest METAR

372
SAUS80 KWBC 241700
MTRHSV
METAR KHSV 241653Z 32007KT 7SM SCT017 SCT025 BKN034 27/22 A3002 RMK AO2
SLP156 T02720222


USA.gov is the U.S. government's official web portal to all federal, state and local government web resources and services.